Time;durP1;ratioP1;P1;durP2;ratioP2;P2;SDS_P1;SDS_P2;PMS_P1;PMS_P2;Temp;Humidity;BMP_temperature;BMP_pressure;BME280_temperature;BME280_humidity;BME280_pressure;Samples;Min_cycle;Max_cycle;Signal;HPM_P1;HPM_P2
2022/03/09 00:01:55;;;;;;;37.93;18.60;;;;;;;;;;5075855;28;20184;-83
2022/03/09 00:04:21;;;;;;;34.47;16.73;;;;;;;;;;5057994;28;20213;-83
2022/03/09 00:06:47;;;;;;;37.73;17.17;;;;;;;;;;5075915;28;20183;-83
2022/03/09 00:09:14;;;;;;;36.57;16.83;;;;;;;;;;5058339;28;20183;-83
2022/03/09 00:11:40;;;;;;;51.97;20.90;;;;;;;;;;5041327;28;20256;-84
2022/03/09 00:14:06;;;;;;;44.60;20.23;;;;;;;;;;5075908;28;20179;-84
2022/03/09 00:16:32;;;;;;;57.30;22.17;;;;;;;;;;5075913;28;20633;-84
2022/03/09 00:18:58;;;;;;;48.13;19.33;;;;;;;;;;5075633;28;20178;-82
2022/03/09 00:21:24;;;;;;;45.37;20.93;;;;;;;;;;5075824;28;20206;-83
2022/03/09 00:23:50;;;;;;;37.50;17.10;;;;;;;;;;5057549;28;20662;-83
2022/03/09 00:26:16;;;;;;;50.93;21.37;;;;;;;;;;5075530;28;20191;-83
2022/03/09 00:28:42;;;;;;;42.50;18.97;;;;;;;;;;5075084;28;20236;-84
2022/03/09 00:31:08;;;;;;;40.93;18.27;;;;;;;;;;5075133;28;20238;-83
2022/03/09 00:33:35;;;;;;;29.33;14.67;;;;;;;;;;5057687;28;20542;-83
2022/03/09 00:36:01;;;;;;;32.97;15.80;;;;;;;;;;5057166;28;20187;-83
2022/03/09 00:38:27;;;;;;;36.33;16.17;;;;;;;;;;5075506;28;20182;-83
2022/03/09 00:40:53;;;;;;;38.73;19.30;;;;;;;;;;5075144;28;20207;-83
2022/03/09 00:43:19;;;;;;;40.90;18.00;;;;;;;;;;5057507;28;20216;-83
2022/03/09 00:45:46;;;;;;;36.07;16.67;;;;;;;;;;5057103;28;20194;-83
2022/03/09 00:48:12;;;;;;;38.03;17.63;;;;;;;;;;5057390;28;20244;-83
2022/03/09 00:50:38;;;;;;;32.73;16.73;;;;;;;;;;5074857;28;20179;-82
2022/03/09 00:53:04;;;;;;;31.60;15.70;;;;;;;;;;5056957;28;20191;-82
2022/03/09 00:55:30;;;;;;;57.10;24.60;;;;;;;;;;5057333;28;20652;-82
2022/03/09 00:57:56;;;;;;;55.97;23.40;;;;;;;;;;5075061;28;20179;-83
2022/03/09 01:00:22;;;;;;;56.20;22.97;;;;;;;;;;5074799;28;20644;-83
2022/03/09 01:02:48;;;;;;;37.30;17.97;;;;;;;;;;5074318;28;20177;-83
2022/03/09 01:05:15;;;;;;;46.13;20.43;;;-0.10;99.90;;;;;;5056996;28;20222;-83
2022/03/09 01:07:42;;;;;;;42.23;20.87;;;2.10;99.90;;;;;;5074861;28;20177;-82
2022/03/09 01:10:08;;;;;;;37.13;16.90;;;-0.40;99.90;;;;;;5074873;28;20620;-83
2022/03/09 01:12:34;;;;;;;45.10;18.77;;;;;;;;;;5074774;28;20193;-82
2022/03/09 01:15:00;;;;;;;33.60;17.13;;;;;;;;;;5074414;28;20183;-83
2022/03/09 01:17:26;;;;;;;34.57;17.20;;;;;;;;;;5074583;28;20225;-83
2022/03/09 01:19:53;;;;;;;33.57;16.10;;;-0.10;99.90;;;;;;5074392;28;20177;-83
2022/03/09 01:22:19;;;;;;;43.10;20.77;;;;;;;;;;5074386;28;20219;-83
2022/03/09 01:24:45;;;;;;;46.17;20.77;;;;;;;;;;5056303;28;20219;-83
2022/03/09 01:27:11;;;;;;;41.13;19.63;;;;;;;;;;5056420;28;20224;-83
2022/03/09 01:29:37;;;;;;;35.10;17.40;;;;;;;;;;5073942;28;20186;-83
2022/03/09 01:32:03;;;;;;;67.67;28.60;;;-0.60;99.90;;;;;;5055870;28;20586;-82
2022/03/09 01:34:30;;;;;;;77.03;31.13;;;;;;;;;;5056084;28;20189;-83
2022/03/09 01:36:56;;;;;;;71.23;31.73;;;;;;;;;;5074009;28;20181;-83
2022/03/09 01:39:22;;;;;;;55.27;23.53;;;;;;;;;;5073759;28;20182;-83
2022/03/09 01:41:48;;;;;;;56.13;22.37;;;;;;;;;;5056149;28;20182;-83
2022/03/09 01:44:19;;;;;;;54.30;23.33;;;0.00;99.90;;;;;;5056578;28;20313;-83
2022/03/09 01:46:49;;;;;;;52.73;22.43;;;0.10;99.90;;;;;;5074437;28;20235;-83
2022/03/09 01:49:16;;;;;;;85.57;35.53;;;0.00;99.90;;;;;;5056743;28;20193;-83
2022/03/09 01:51:44;;;;;;;49.67;20.83;;;0.00;99.90;;;;;;5074278;28;20225;-83
2022/03/09 01:54:10;;;;;;;43.30;22.37;;;;;;;;;;5056047;28;20194;-83
2022/03/09 01:56:37;;;;;;;45.30;23.27;;;0.00;99.90;;;;;;5056078;28;20236;-83
2022/03/09 01:59:08;;;;;;;59.87;25.33;;;-0.20;99.90;;;;;;5055856;28;20241;-83
2022/03/09 02:01:34;;;;;;;45.77;22.50;;;;;;;;;;5073154;28;20240;-83
2022/03/09 02:04:02;;;;;;;36.10;18.80;;;0.00;99.90;;;;;;5073372;28;20217;-83
2022/03/09 02:06:28;;;;;;;74.67;31.63;;;;;;;;;;5055498;28;20198;-83
2022/03/09 02:11:39;;;;;;;53.87;25.57;;;;;;;;;;5073954;28;20171;-82
2022/03/09 02:14:05;;;;;;;40.30;20.13;;;;;;;;;;5073565;28;20196;-82
2022/03/09 02:16:32;;;;;;;39.03;19.00;;;-0.10;99.90;;;;;;5073789;28;20641;-82
2022/03/09 02:19:01;;;;;;;51.20;20.97;;;0.10;99.90;;;;;;5073472;28;20193;-82
2022/03/09 02:21:30;;;;;;;40.27;19.10;;;-0.10;99.90;;;;;;5055297;28;20181;-82
2022/03/09 02:23:56;;;;;;;49.03;22.93;;;;;;;;;;5073061;28;20207;-83
2022/03/09 02:26:22;;;;;;;45.07;20.30;;;;;;;;;;5055435;28;20193;-82
2022/03/09 02:28:48;;;;;;;44.97;20.00;;;;;;;;;;5073529;28;20182;-82
2022/03/09 02:31:14;;;;;;;42.57;20.47;;;;;;;;;;5055168;28;20231;-82
2022/03/09 02:33:45;;;;;;;48.27;23.50;;;-0.10;99.90;;;;;;5073312;28;20183;-83
2022/03/09 02:36:11;;;;;;;49.97;26.90;;;;;;;;;;5073257;28;20176;-83
2022/03/09 02:38:37;;;;;;;58.13;27.93;;;;;;;;;;5073619;28;20274;-83
2022/03/09 02:41:03;;;;;;;42.70;21.83;;;;;;;;;;5072949;28;20211;-83
2022/03/09 02:43:29;;;;;;;37.47;19.03;;;;;;;;;;5038654;28;20677;-83
2022/03/09 02:45:55;;;;;;;39.10;19.57;;;;;;;;;;5055132;28;20542;-84
2022/03/09 02:48:21;;;;;;;33.80;17.50;;;-0.30;99.90;;;;;;5039037;28;20194;-83
2022/03/09 02:50:47;;;;;;;36.10;18.20;;;;;;;;;;5055237;28;20225;-83
2022/03/09 02:53:13;;;;;;;42.97;19.40;;;;;;;;;;5055222;28;20187;-83
2022/03/09 02:55:39;;;;;;;41.47;20.27;;;-0.10;99.90;;;;;;5038635;28;20179;-83
2022/03/09 02:58:05;;;;;;;44.87;19.40;;;;;;;;;;5038365;28;20191;-84
2022/03/09 03:00:31;;;;;;;47.80;22.00;;;0.00;99.90;;;;;;5055072;28;20247;-84
2022/03/09 03:02:57;;;;;;;40.07;20.67;;;;;;;;;;5038684;28;20208;-83
2022/03/09 03:05:23;;;;;;;42.00;20.30;;;;;;;;;;5054990;28;20219;-83
2022/03/09 03:07:49;;;;;;;41.80;21.43;;;;;;;;;;5073229;28;20273;-83
2022/03/09 03:10:15;;;;;;;42.60;20.20;;;;;;;;;;5038409;28;20237;-84
2022/03/09 03:12:41;;;;;;;44.90;21.53;;;;;;;;;;5072992;28;20177;-83
2022/03/09 03:15:07;;;;;;;47.57;22.07;;;-0.20;99.90;;;;;;5076740;28;20646;-83
2022/03/09 03:17:37;;;;;;;40.93;19.67;;;0.10;99.90;;;;;;5058942;28;20173;-83
2022/03/09 03:20:04;;;;;;;42.07;20.83;;;-0.10;99.90;;;;;;5076626;28;20175;-83
2022/03/09 03:22:30;;;;;;;45.80;21.83;;;;;;;;;;5059228;28;20183;-83
2022/03/09 03:24:56;;;;;;;45.33;21.90;;;;;;;;;;5041883;28;20552;-90
2022/03/09 03:27:22;;;;;;;47.70;24.67;;;;;;;;;;5058898;28;20235;-83
2022/03/09 03:29:48;;;;;;;49.73;23.57;;;-0.40;99.90;;;;;;5076875;28;20180;-83
2022/03/09 03:32:14;;;;;;;48.27;23.80;;;;;;;;;;5042017;28;20237;-84
2022/03/09 03:34:40;;;;;;;49.60;23.73;;;;;;;;;;5058869;28;20238;-83
2022/03/09 03:37:06;;;;;;;47.60;21.53;;;;;;;;;;5076300;28;20717;-84
2022/03/09 03:39:32;;;;;;;41.90;21.07;;;;;;;;;;5058446;28;20222;-83
2022/03/09 03:41:58;;;;;;;44.67;20.73;;;;;;;;;;5076329;28;20175;-84
2022/03/09 03:44:24;;;;;;;41.43;19.63;;;;;;;;;;5076721;28;20657;-84
2022/03/09 03:46:50;;;;;;;41.93;19.93;;;-0.20;99.90;;;;;;5076787;28;20222;-83
2022/03/09 03:49:16;;;;;;;43.90;19.90;;;;;;;;;;5076331;28;20182;-83
2022/03/09 03:51:42;;;;;;;43.37;19.83;;;;;;;;;;5058396;28;20181;-82
2022/03/09 03:54:09;;;;;;;42.57;20.70;;;;;;;;;;5058096;28;20724;-83
2022/03/09 03:56:35;;;;;;;46.77;20.53;;;;;;;;;;5076317;28;20186;-82
2022/03/09 03:59:01;;;;;;;35.73;17.37;;;;;;;;;;5058177;28;20710;-85
2022/03/09 04:01:27;;;;;;;24.03;11.87;;;;;;;;;;5058190;28;20186;-83
2022/03/09 04:03:53;;;;;;;21.37;11.47;;;;;;;;;;5075640;28;20679;-82
2022/03/09 04:06:19;;;;;;;18.07;9.63;;;;;;;;;;5075904;28;20189;-84
2022/03/09 04:08:45;;;;;;;15.60;8.70;;;;;;;;;;5075904;28;20180;-83
2022/03/09 04:11:11;;;;;;;20.47;9.90;;;;;;;;;;5075943;28;20224;-83
2022/03/09 04:13:37;;;;;;;15.93;8.10;;;;;;;;;;5058203;28;20185;-83
2022/03/09 04:16:03;;;;;;;15.97;8.97;;;;;;;;;;5057897;28;20187;-84
2022/03/09 04:18:29;;;;;;;58.50;20.97;;;;;;;;;;5057831;28;20187;-83
2022/03/09 04:20:55;;;;;;;20.23;10.30;;;;;;;;;;5075772;28;20227;-83
2022/03/09 04:23:21;;;;;;;16.70;9.27;;;;;;;;;;5075366;28;20185;-83
2022/03/09 04:25:47;;;;;;;18.67;11.60;;;;;;;;;;5058448;28;20181;-83
2022/03/09 04:28:13;;;;;;;17.13;11.00;;;;;;;;;;5076293;28;20488;-83
2022/03/09 04:30:39;;;;;;;12.27;7.87;;;;;;;;;;5057799;28;20242;-83
2022/03/09 04:33:06;;;;;;;11.37;7.20;;;;;;;;;;5057514;28;20173;-83
2022/03/09 04:35:32;;;;;;;13.77;7.77;;;;;;;;;;5075890;28;20180;-83
2022/03/09 04:37:58;;;;;;;10.77;6.73;;;;;;;;;;5057322;28;20598;-82
2022/03/09 04:40:24;;;;;;;11.33;6.40;;;;;;;;;;5075026;28;20226;-82
2022/03/09 04:42:50;;;;;;;11.57;4.83;;;;;;;;;;5035508;28;20195;-82
2022/03/09 04:45:16;;;;;;;14.13;5.57;;;;;;;;;;5071531;28;20313;-83
2022/03/09 04:47:42;;;;;;;8.47;4.80;;;;;;;;;;5050178;28;20270;-83
2022/03/09 04:50:08;;;;;;;9.77;5.37;;;;;;;;;;5047112;28;20196;-86
2022/03/09 04:52:34;;;;;;;10.07;5.23;;;;;;;;;;5073345;28;20193;-83
2022/03/09 04:55:00;;;;;;;10.90;5.53;;;;;;;;;;5074158;28;20221;-83
2022/03/09 04:57:26;;;;;;;23.40;10.43;;;;;;;;;;5039416;28;20184;-83
2022/03/09 04:59:52;;;;;;;40.87;18.67;;;;;;;;;;5073179;28;20208;-83
2022/03/09 05:02:18;;;;;;;16.67;8.77;;;;;;;;;;5073007;28;20181;-83
2022/03/09 05:04:44;;;;;;;21.67;10.40;;;;;;;;;;5054909;28;20318;-86
2022/03/09 05:07:10;;;;;;;31.63;17.77;;;;;;;;;;5055370;28;20255;-82
2022/03/09 05:09:36;;;;;;;18.03;10.43;;;;;;;;;;5072257;28;20554;-83
2022/03/09 05:12:02;;;;;;;8.47;5.93;;;-0.80;99.90;;;;;;5069822;28;20297;-82
2022/03/09 05:14:28;;;;;;;18.97;9.87;;;;;;;;;;5054296;28;20638;-82
2022/03/09 05:16:54;;;;;;;15.10;8.77;;;;;;;;;;5070362;28;20658;-85
2022/03/09 05:19:20;;;;;;;14.03;7.77;;;;;;;;;;5053155;28;20186;-84
2022/03/09 05:21:47;;;;;;;19.67;9.40;;;;;;;;;;5054877;28;20194;-83
2022/03/09 05:24:13;;;;;;;48.50;22.47;;;;;;;;;;5036042;28;20265;-90
2022/03/09 05:26:39;;;;;;;53.23;22.33;;;;;;;;;;5056153;28;20187;-83
2022/03/09 05:29:05;;;;;;;47.03;21.07;;;;;;;;;;5054082;28;20217;-83
2022/03/09 05:31:31;;;;;;;26.27;11.60;;;;;;;;;;5048511;28;20239;-85
2022/03/09 05:33:57;;;;;;;19.57;10.20;;;;;;;;;;5045107;28;20193;-83
2022/03/09 05:36:22;;;;;;;26.70;13.50;;;-0.90;99.90;;;;;;5040126;28;20214;-87
2022/03/09 05:38:48;;;;;;;23.97;13.40;;;;;;;;;;5009128;28;20197;-87
2022/03/09 05:41:14;;;;;;;14.93;8.57;;;;;;;;;;5017169;28;20203;-87
2022/03/09 06:52:42;;;;;;;21.20;10.83;;;;;;;;;;5505615;24;20266;-83
2022/03/09 06:55:09;;;;;;;29.83;11.73;;;;;;;;;;4884302;29;20664;-83
2022/03/09 06:57:35;;;;;;;33.73;14.47;;;;;;;;;;4884722;29;20522;-86
2022/03/09 07:00:03;;;;;;;26.53;12.23;;;;;;;;;;4884744;29;20629;-85
2022/03/09 07:02:32;;;;;;;25.37;13.00;;;;;;;;;;4885431;29;20545;-84
2022/03/09 07:04:58;;;;;;;29.27;15.23;;;;;;;;;;4884087;29;20210;-86
2022/03/09 07:07:24;;;;;;;26.47;13.50;;;;;;;;;;4884466;29;20543;-85
2022/03/09 07:09:50;;;;;;;25.90;12.80;;;;;;;;;;4868635;29;20193;-85
2022/03/09 07:12:27;;;;;;;;;;;;;;;;;;;;;
2022/03/09 07:14:53;;;;;;;22.57;11.63;;;;;;;;;;4892929;29;20279;-86
2022/03/09 07:17:19;;;;;;;23.23;12.80;;;;;;;;;;4887835;29;20193;-85
2022/03/09 07:19:45;;;;;;;26.17;13.17;;;;;;;;;;4884504;29;20242;-85
2022/03/09 07:22:19;;;;;;;20.53;10.57;;;;;;;;;;4884657;29;20193;-85
2022/03/09 07:24:45;;;;;;;19.77;10.23;;;;;;;;;;4884492;29;20244;-85
2022/03/09 07:27:11;;;;;;;30.40;15.77;;;;;;;;;;4884166;29;20193;-85
2022/03/09 07:29:37;;;;;;;28.80;14.93;;;;;;;;;;4885445;29;20196;-85
2022/03/09 07:32:04;;;;;;;26.63;15.10;;;;;;;;;;4884152;29;20242;-85
2022/03/09 07:34:30;;;;;;;26.13;12.67;;;;;;;;;;4884146;29;20205;-85
2022/03/09 07:36:58;;;;;;;24.57;13.30;;;;;;;;;;4885512;29;20178;-85
2022/03/09 07:39:26;;;;;;;21.70;11.43;;;;;;;;;;4884277;29;20336;-86
2022/03/09 07:41:55;;;;;;;29.67;13.87;;;;;;;;;;4883823;29;20215;-85
2022/03/09 07:44:24;;;;;;;27.63;13.37;;;;;;;;;;4885233;29;20220;-85
2022/03/09 07:46:54;;;;;;;31.00;14.50;;;;;;;;;;4888225;29;20261;-85
2022/03/09 07:49:22;;;;;;;32.17;16.13;;;;;;;;;;4890889;29;20194;-84
2022/03/09 07:51:49;;;;;;;48.07;21.30;;;;;;;;;;4890912;29;20190;-85
2022/03/09 07:54:16;;;;;;;43.70;19.00;;;;;;;;;;4883968;29;20646;-84
2022/03/09 07:56:44;;;;;;;32.67;13.77;;;;;;;;;;4888743;29;20198;-83
2022/03/09 07:59:11;;;;;;;27.73;11.90;;;;;;;;;;4887461;29;20256;-84
2022/03/09 08:01:39;;;;;;;29.60;14.30;;;0.80;99.90;;;;;;4879068;29;20250;-84
2022/03/09 08:04:06;;;;;;;25.00;13.30;;;;;;;;;;4879474;29;20209;-84
2022/03/09 08:06:32;;;;;;;36.80;15.37;;;;;;;;;;4879911;29;20215;-85
2022/03/09 08:08:58;;;;;;;32.50;14.93;;;;;;;;;;4864381;29;20714;-86
2022/03/09 08:11:24;;;;;;;38.97;15.77;;;;;;;;;;4880250;29;20189;-85
2022/03/09 08:13:50;;;;;;;30.63;14.43;;;;;;;;;;4881284;29;20537;-84
2022/03/09 08:16:16;;;;;;;24.40;12.30;;;;;;;;;;4881309;29;20284;-84
2022/03/09 08:18:42;;;;;;;26.60;11.80;;;;;;;;;;4880323;29;20613;-84
2022/03/09 08:21:08;;;;;;;23.83;11.43;;;;;;;;;;4870230;29;20194;-84
2022/03/09 08:23:34;;;;;;;22.47;11.20;;;;;;;;;;4847205;29;20321;-84
2022/03/09 08:26:00;;;;;;;18.43;10.03;;;;;;;;;;4869629;29;20342;-86
2022/03/09 08:28:26;;;;;;;17.67;9.10;;;;;;;;;;4867511;29;20194;-86
2022/03/09 08:30:54;;;;;;;16.17;9.27;;;;;;;;;;4864386;29;20299;-86
2022/03/09 08:33:21;;;;;;;17.37;9.20;;;;;;;;;;4865022;29;20206;-85
2022/03/09 08:35:47;;;;;;;17.47;10.53;;;;;;;;;;4863898;29;20202;-87
2022/03/09 08:38:13;;;;;;;27.03;12.03;;;;;;;;;;4847702;29;20191;-86
2022/03/09 08:40:39;;;;;;;25.23;13.93;;;;;;;;;;4866053;29;20262;-86
2022/03/09 08:43:05;;;;;;;25.83;12.70;;;1.00;99.90;;;;;;4862980;29;20194;-86
2022/03/09 08:45:31;;;;;;;27.13;12.07;;;;;;;;;;4847103;29;20218;-88
2022/03/09 08:47:57;;;;;;;24.97;11.73;;;;;;;;;;4867111;29;20202;-86
2022/03/09 08:50:23;;;;;;;21.03;11.60;;;;;;;;;;4861771;29;20195;-86
2022/03/09 08:52:52;;;;;;;27.60;13.10;;;;;;;;;;4862111;29;20242;-87
2022/03/09 08:55:20;;;;;;;23.57;12.53;;;;;;;;;;4862519;29;20182;-86
2022/03/09 08:57:46;;;;;;;19.93;10.27;;;;;;;;;;4846715;29;20194;-87
2022/03/09 09:00:13;;;;;;;23.37;11.13;;;;;;;;;;4846095;29;20276;-87
2022/03/09 09:02:39;;;;;;;20.53;10.67;;;;;;;;;;4863789;29;20182;-86
2022/03/09 09:05:05;;;;;;;24.77;11.70;;;;;;;;;;4858758;29;20302;-86
2022/03/09 09:07:34;;;;;;;23.80;11.47;;;;;;;;;;4872955;29;20218;-86
2022/03/09 09:10:03;;;;;;;23.50;13.10;;;;;;;;;;4877844;29;20186;-86
2022/03/09 09:12:30;;;;;;;26.77;13.67;;;;;;;;;;4873591;29;20188;-87
2022/03/09 09:14:56;;;;;;;24.50;12.30;;;;;;;;;;4876454;29;20177;-85
2022/03/09 09:17:22;;;;;;;30.47;15.07;;;;;;;;;;4876302;29;20178;-86
2022/03/09 09:19:49;;;;;;;32.30;17.37;;;;;;;;;;4855559;29;20635;-86
2022/03/09 09:22:15;;;;;;;45.20;19.30;;;;;;;;;;4880315;29;20193;-87
2022/03/09 09:24:41;;;;;;;38.30;18.00;;;;;;;;;;4879719;29;20304;-87
2022/03/09 09:27:07;;;;;;;38.33;18.97;;;;;;;;;;4879865;29;20190;-86
2022/03/09 09:29:33;;;;;;;44.77;19.07;;;;;;;;;;4879839;29;20189;-86
2022/03/09 09:31:59;;;;;;;41.43;19.17;;;;;;;;;;4879910;29;20553;-87
2022/03/09 09:34:28;;;;;;;36.77;17.73;;;0.80;99.90;;;;;;4879453;29;20216;-87
2022/03/09 09:36:54;;;;;;;34.00;16.63;;;;;;;;;;4881128;29;20269;-87
2022/03/09 09:39:21;;;;;;;42.07;17.53;;;0.90;99.90;;;;;;4881147;29;20643;-87
2022/03/09 09:41:49;;;;;;;56.70;21.57;;;0.90;99.90;;;;;;4879659;29;20718;-86
2022/03/09 09:44:15;;;;;;;63.47;24.20;;;;;;;;;;4873204;29;20667;-88
2022/03/09 09:46:43;;;;;;;70.27;28.40;;;1.00;99.90;;;;;;4862312;29;20187;-87
2022/03/09 09:49:10;;;;;;;51.57;26.20;;;1.00;99.90;;;;;;4861171;29;20229;-85
2022/03/09 09:51:39;;;;;;;55.97;25.03;;;;;;;;;;4860469;29;20199;-87
2022/03/09 09:54:06;;;;;;;55.03;26.20;;;;;;;;;;4861081;29;20253;-85
2022/03/09 09:56:36;;;;;;;254.70;81.63;;;1.20;99.90;;;;;;4877118;29;20568;-82
2022/03/09 09:59:02;;;;;;;204.43;67.60;;;;;;;;;;4874851;29;20195;-86
2022/03/09 10:01:31;;;;;;;138.97;55.60;;;;;;;;;;4869864;29;20185;-86
2022/03/09 10:03:59;;;;;;;53.10;25.27;;;;;;;;;;4864769;29;20221;-85
2022/03/09 10:06:24;;;;;;;65.97;29.60;;;;;;;;;;4867745;29;20196;-84
2022/03/09 10:09:04;;;;;;;97.63;39.87;;;1.40;99.90;;;;;;4870801;29;20187;-84
2022/03/09 10:11:48;;;;;;;36.17;20.30;;;1.80;99.90;;;;;;4875821;29;20226;-85
2022/03/09 10:14:15;;;;;;;33.97;17.23;;;1.60;99.90;;;;;;4871877;29;20213;-86
2022/03/09 10:17:00;;;;;;;29.87;16.07;;;1.70;99.90;;;;;;4865806;29;20338;-86
2022/03/09 10:19:31;;;;;;;45.13;20.93;;;1.60;99.90;;;;;;4854992;29;20334;-88
2022/03/09 10:21:57;;;;;;;50.20;23.00;;;;;;;;;;4871423;29;20210;-85
2022/03/09 10:24:33;;;;;;;43.03;22.07;;;1.40;99.90;;;;;;4855512;29;20211;-85
2022/03/09 10:27:01;;;;;;;33.70;17.93;;;;;;;;;;4871005;29;20190;-86
2022/03/09 10:29:29;;;;;;;40.83;17.87;;;1.50;99.90;;;;;;4869310;29;20687;-86
2022/03/09 10:31:59;;;;;;;29.93;15.80;;;;;;;;;;4863766;29;20217;-86
2022/03/09 10:34:26;;;;;;;27.00;16.00;;;1.50;99.90;;;;;;4864434;29;20191;-85
2022/03/09 10:36:58;;;;;;;38.67;17.03;;;1.50;99.90;;;;;;4860489;29;20194;-85
2022/03/09 10:39:42;;;;;;;35.57;17.93;;;1.30;99.90;;;;;;4862583;29;20218;-85
2022/03/09 10:42:25;;;;;;;34.60;18.37;;;1.40;99.90;;;;;;4864248;29;20281;-87
2022/03/09 10:44:52;;;;;;;35.67;17.57;;;1.30;99.90;;;;;;4862392;29;20232;-85
2022/03/09 10:47:32;;;;;;;34.27;16.60;;;2.00;99.90;;;;;;4868312;29;20197;-86
2022/03/09 10:50:30;;;;;;;30.50;17.07;;;1.20;99.90;;;;;;4862514;29;20573;-85
2022/03/09 10:52:58;;;;;;;39.00;18.53;;;1.30;99.90;;;;;;4863212;29;20234;-85
2022/03/09 10:55:24;;;;;;;30.40;16.93;;;;;;;;;;4863206;29;20639;-86
2022/03/09 10:57:51;;;;;;;32.97;16.20;;;1.40;99.90;;;;;;4866056;29;20759;-86
2022/03/09 11:00:35;;;;;;;37.60;17.40;;;1.40;99.90;;;;;;4862999;29;20632;-84
2022/03/09 11:03:07;;;;;;;32.40;17.20;;;1.40;99.90;;;;;;4852132;29;20192;-83
2022/03/09 11:05:34;;;;;;;41.93;19.63;;;;;;;;;;4870370;29;20297;-84
2022/03/09 11:08:02;;;;;;;40.50;19.83;;;1.60;99.90;;;;;;4870569;29;20206;-84
2022/03/09 11:10:29;;;;;;;41.47;19.57;;;1.70;99.90;;;;;;4873912;29;20182;-84
2022/03/09 11:12:56;;;;;;;38.23;17.90;;;;;;;;;;4864812;29;20787;-84
2022/03/09 11:15:23;;;;;;;35.13;16.83;;;;;;;;;;4876077;29;20189;-84
2022/03/09 11:17:49;;;;;;;32.33;15.87;;;;;;;;;;4866525;29;20279;-85
2022/03/09 11:20:16;;;;;;;41.20;17.87;;;;;;;;;;4860378;29;20193;-85
2022/03/09 11:22:44;;;;;;;39.07;18.73;;;;;;;;;;4875230;29;20182;-85
2022/03/09 11:25:15;;;;;;;33.03;16.20;;;;;;;;;;4868600;29;20225;-86
2022/03/09 11:27:42;;;;;;;36.93;19.03;;;;;;;;;;4867795;29;20194;-87
2022/03/09 11:30:25;;;;;;;33.23;17.03;;;1.70;99.90;;;;;;4865458;29;20181;-85
2022/03/09 11:32:55;;;;;;;33.40;15.73;;;;;;;;;;4878051;29;20609;-83
2022/03/09 11:35:35;;;;;;;31.30;16.27;;;1.60;99.90;;;;;;4866863;29;20206;-83
2022/03/09 11:38:03;;;;;;;32.47;16.37;;;1.60;99.90;;;;;;4877693;29;20666;-84
2022/03/09 11:40:30;;;;;;;34.00;16.93;;;;;;;;;;4877565;29;20184;-82
2022/03/09 11:43:29;;;;;;;34.93;17.77;;;1.80;99.90;;;;;;4859011;29;20715;-83
2022/03/09 11:45:58;;;;;;;42.63;20.37;;;;;;;;;;4866740;29;20263;-83
2022/03/09 11:48:59;;;;;;;38.07;18.80;;;1.80;99.90;;;;;;4871247;29;20218;-84
2022/03/09 11:51:29;;;;;;;31.27;16.37;;;1.70;99.90;;;;;;4869637;29;20264;-86
2022/03/09 11:53:59;;;;;;;39.10;20.17;;;1.70;99.90;;;;;;4863562;29;20302;-84
2022/03/09 11:56:36;;;;;;;38.10;18.03;;;1.50;99.90;;;;;;4873039;29;20192;-86
2022/03/09 11:59:21;;;;;;;37.53;18.77;;;1.40;99.90;;;;;;4882024;29;20193;-84
2022/03/09 12:01:57;;;;;;;34.90;18.33;;;1.50;99.90;;;;;;4874307;29;20223;-84
2022/03/09 12:04:53;;;;;;;35.63;17.80;;;1.50;99.90;;;;;;4875939;29;20217;-88
2022/03/09 12:07:33;;;;;;;39.47;18.47;;;1.70;99.90;;;;;;4867238;29;20655;-84
2022/03/09 12:10:08;;;;;;;42.63;20.67;;;1.50;99.90;;;;;;4864624;29;20177;-85
2022/03/09 12:12:36;;;;;;;47.43;20.77;;;1.70;99.90;;;;;;4862004;29;20181;-84
2022/03/09 12:15:10;;;;;;;45.13;20.90;;;1.60;99.90;;;;;;4867609;29;20200;-84
2022/03/09 12:17:39;;;;;;;48.40;22.17;;;;;;;;;;4881613;29;20630;-85
2022/03/09 12:20:18;;;;;;;30.53;16.53;;;;;;;;;;4880961;29;20182;-85
2022/03/09 12:23:01;;;;;;;31.07;15.27;;;1.50;99.90;;;;;;4880999;29;20184;-84
2022/03/09 12:25:40;;;;;;;33.17;16.80;;;1.60;99.90;;;;;;4883217;29;20249;-84
2022/03/09 12:28:42;;;;;;;35.10;18.53;;;1.30;99.90;;;;;;4880771;29;20528;-85
2022/03/09 12:31:08;;;;;;;34.80;17.53;;;;;;;;;;4881891;29;20189;-85
2022/03/09 12:33:36;;;;;;;29.60;15.30;;;1.40;99.90;;;;;;4881436;29;20182;-85
2022/03/09 12:36:08;;;;;;;30.40;15.40;;;1.40;99.90;;;;;;4873199;29;20191;-85
2022/03/09 12:38:45;;;;;;;41.77;19.53;;;1.30;99.90;;;;;;4862215;29;20258;-84
2022/03/09 12:41:32;;;;;;;39.13;20.87;;;0.90;99.90;;;;;;4859993;29;20182;-86
2022/03/09 12:44:05;;;;;;;31.30;18.30;;;;;;;;;;4862112;29;20221;-85
2022/03/09 12:46:32;;;;;;;33.27;16.83;;;1.20;99.90;;;;;;4864810;29;20197;-82
2022/03/09 12:49:03;;;;;;;74.87;32.10;;;1.20;99.90;;;;;;4882376;29;20178;-85
2022/03/09 12:51:29;;;;;;;59.40;26.13;;;;;;;;;;4862577;29;20247;-83
2022/03/09 12:53:55;;;;;;;30.73;16.17;;;;;;;;;;4847480;29;20257;-85
2022/03/09 12:56:23;;;;;;;31.67;15.80;;;1.20;99.90;;;;;;4863160;29;20726;-86
2022/03/09 12:59:10;;;;;;;33.83;16.33;;;1.10;99.90;;;;;;4861975;29;20190;-83
2022/03/09 13:01:36;;;;;;;26.10;14.10;;;;;;;;;;4861510;29;20178;-84
2022/03/09 13:04:03;;;;;;;30.80;15.40;;;;;;;;;;4863339;29;20218;-84
2022/03/09 13:06:32;;;;;;;35.63;16.43;;;1.00;99.90;;;;;;4863590;29;20221;-83
2022/03/09 13:08:58;;;;;;;30.43;15.53;;;;;;;;;;4849937;29;20551;-82
2022/03/09 13:11:31;;;;;;;30.57;15.53;;;0.80;99.90;;;;;;4862265;29;20522;-86
2022/03/09 13:13:59;;;;;;;30.40;14.43;;;1.10;99.90;;;;;;4847356;29;20193;-83
2022/03/09 13:16:26;;;;;;;250.40;75.47;;;;;;;;;;4848499;29;20207;-86
2022/03/09 13:18:57;;;;;;;263.17;82.47;;;1.10;99.90;;;;;;4875470;29;20249;-84
2022/03/09 13:21:30;;;;;;;93.13;33.90;;;1.10;99.90;;;;;;4857423;29;20206;-82
2022/03/09 13:23:59;;;;;;;40.50;19.17;;;1.10;99.90;;;;;;4864142;29;20691;-84
2022/03/09 13:26:50;;;;;;;40.57;16.93;;;1.70;99.90;;;;;;4879485;29;20218;-83
2022/03/09 13:29:21;;;;;;;59.03;23.90;;;1.20;99.90;;;;;;4879709;29;20292;-83
2022/03/09 13:31:53;;;;;;;110.97;41.33;;;1.00;99.90;;;;;;4881076;29;20189;-85
2022/03/09 13:34:34;;;;;;;87.10;32.13;;;1.60;99.90;;;;;;4881412;29;20293;-86
2022/03/09 13:37:00;;;;;;;38.57;17.40;;;;;;;;;;4875443;29;20245;-84
2022/03/09 13:39:43;;;;;;;31.30;14.93;;;1.30;99.90;;;;;;4869985;29;20186;-87
2022/03/09 13:42:21;;;;;;;35.30;18.00;;;1.40;99.90;;;;;;4864950;29;20171;-87
2022/03/09 13:45:11;;;;;;;47.23;21.47;;;1.70;99.90;;;;;;4863429;29;20296;-85
2022/03/09 13:47:53;;;;;;;53.73;22.93;;;1.50;99.90;;;;;;4862279;29;20178;-84
2022/03/09 13:50:49;;;;;;;43.03;19.57;;;1.50;99.90;;;;;;4862591;29;20205;-86
2022/03/09 13:53:18;;;;;;;49.80;22.87;;;1.50;99.90;;;;;;4860399;29;20244;-84
2022/03/09 13:55:48;;;;;;;41.90;18.57;;;1.50;99.90;;;;;;4861070;29;20637;-86
2022/03/09 13:58:18;;;;;;;39.60;18.90;;;1.50;99.90;;;;;;4866520;29;20174;-86
2022/03/09 14:00:45;;;;;;;37.10;18.30;;;1.50;99.90;;;;;;4862710;29;20190;-85
2022/03/09 14:03:19;;;;;;;47.20;21.53;;;1.30;99.90;;;;;;4861259;29;20198;-87
2022/03/09 14:05:53;;;;;;;39.83;20.57;;;1.50;99.90;;;;;;4846703;29;20308;-85
2022/03/09 14:08:31;;;;;;;38.00;18.30;;;1.80;99.90;;;;;;4864302;29;20190;-85
2022/03/09 14:11:23;;;;;;;54.47;23.67;;;1.40;99.90;;;;;;4861700;29;20213;-85
2022/03/09 14:13:56;;;;;;;50.97;23.33;;;1.40;99.90;;;;;;4862364;29;20245;-84
2022/03/09 14:16:22;;;;;;;45.20;22.57;;;;;;;;;;4865724;29;20201;-85
2022/03/09 14:18:48;;;;;;;48.40;24.27;;;;;;;;;;4863220;29;20189;-85
2022/03/09 14:21:14;;;;;;;49.20;23.90;;;;;;;;;;4865878;29;20190;-85
2022/03/09 14:23:40;;;;;;;74.20;33.03;;;;;;;;;;4849160;29;20290;-86
2022/03/09 14:26:06;;;;;;;57.83;30.20;;;;;;;;;;4862492;29;20739;-87
2022/03/09 14:28:32;;;;;;;65.63;32.03;;;;;;;;;;4847908;29;20277;-84
2022/03/09 14:30:58;;;;;;;50.50;23.60;;;;;;;;;;4849292;29;20191;-87
2022/03/09 14:33:24;;;;;;;48.33;25.80;;;;;;;;;;4870014;29;20189;-86
2022/03/09 14:35:50;;;;;;;55.50;26.00;;;;;;;;;;4868160;29;20537;-85
2022/03/09 14:38:16;;;;;;;47.07;22.10;;;;;;;;;;4862589;29;20628;-85
2022/03/09 14:40:43;;;;;;;39.50;20.00;;;;;;;;;;4862203;29;20193;-86
2022/03/09 14:43:09;;;;;;;38.57;19.37;;;;;;;;;;4864847;29;20202;-85
2022/03/09 14:45:35;;;;;;;46.87;22.63;;;;;;;;;;4848274;29;20226;-86
2022/03/09 14:48:02;;;;;;;38.47;19.33;;;;;;;;;;4848353;29;20662;-86
2022/03/09 14:50:29;;;;;;;47.47;22.53;;;1.10;99.90;;;;;;4863188;29;20198;-84
2022/03/09 14:52:55;;;;;;;150.10;55.57;;;;;;;;;;4856442;29;20252;-84
2022/03/09 14:55:22;;;;;;;101.50;37.57;;;;;;;;;;4874504;29;20183;-88
2022/03/09 14:57:48;;;;;;;242.07;79.33;;;;;;;;;;4893156;29;20189;-86
2022/03/09 15:00:15;;;;;;;76.47;30.87;;;1.00;99.90;;;;;;4886639;29;20197;-85
2022/03/09 15:02:41;;;;;;;88.90;33.57;;;;;;;;;;4888871;29;20186;-86
2022/03/09 15:05:08;;;;;;;91.83;36.60;;;;;;;;;;4877367;29;20255;-84